Time;durP1;ratioP1;P1;durP2;ratioP2;P2;SDS_P1;SDS_P2;PMS_P1;PMS_P2;Temp;Humidity;BMP_temperature;BMP_pressure;BME280_temperature;BME280_humidity;BME280_pressure;Samples;Min_cycle;Max_cycle;Signal;HPM_P1;HPM_P2
2023/10/18 00:00:34;;;;;;;8.07;4.38;;;;;;;7.13;100.00;92541.66;6302419;22;20011;-78
2023/10/18 00:03:01;;;;;;;12.70;4.13;;;;;;;7.12;100.00;92543.50;6300843;22;20015;-78
2023/10/18 00:05:28;;;;;;;7.80;4.50;;;;;;;7.11;100.00;92541.16;6301467;22;20019;-78
2023/10/18 00:07:57;;;;;;;8.48;4.45;;;;;;;7.11;100.00;92541.91;6274894;22;20003;-78
2023/10/18 00:10:27;;;;;;;8.45;4.13;;;;;;;7.08;100.00;92538.03;6301121;22;20007;-78
2023/10/18 00:12:53;;;;;;;6.70;4.20;;;;;;;7.09;100.00;92538.78;6301785;22;20015;-78
2023/10/18 00:15:19;;;;;;;10.88;4.43;;;;;;;7.06;100.00;92539.34;6302075;22;20007;-78
2023/10/18 00:17:45;;;;;;;6.78;4.82;;;;;;;7.03;100.00;92538.03;6274777;22;20033;-78
2023/10/18 00:20:23;;;;;;;9.25;4.43;;;;;;;7.01;100.00;92531.53;6301639;22;19999;-79
2023/10/18 00:22:49;;;;;;;7.97;4.85;;;;;;;6.98;100.00;92529.44;6273755;22;20475;-78
2023/10/18 00:25:15;;;;;;;8.50;4.80;;;;;;;6.96;100.00;92526.31;6301707;22;20015;-78
2023/10/18 00:27:41;;;;;;;8.02;5.30;;;;;;;6.95;100.00;92522.16;6301993;22;20015;-78
2023/10/18 00:30:11;;;;;;;9.20;5.10;;;;;;;6.95;100.00;92524.78;6273797;22;20026;-78
2023/10/18 00:32:42;;;;;;;8.40;4.68;;;;;;;6.98;100.00;92521.63;6301609;22;20081;-78
2023/10/18 00:35:23;;;;;;;8.45;5.05;;;;;;;6.97;100.00;92520.09;6274822;22;20015;-79
2023/10/18 00:37:50;;;;;;;6.88;5.00;;;;;;;6.99;100.00;92518.78;6278214;22;20018;-78
2023/10/18 00:43:04;;;;;;;9.60;5.03;;;;;;;7.01;100.00;92515.94;6273927;22;20015;-78
2023/10/18 00:45:31;;;;;;;11.13;4.75;;;;;;;7.01;100.00;92508.88;6300785;22;20007;-78
2023/10/18 00:48:04;;;;;;;8.50;4.70;;;;;;;7.02;100.00;92512.25;6301779;22;20447;-78
2023/10/18 00:50:31;;;;;;;7.75;4.72;;;;;;;7.03;100.00;92514.63;6273846;22;20012;-79
2023/10/18 00:52:57;;;;;;;8.65;5.03;;;;;;;7.03;100.00;92512.00;6274160;22;20003;-78
2023/10/18 00:55:23;;;;;;;8.98;5.22;;;;;;;7.04;100.00;92510.19;6301795;22;20377;-78
2023/10/18 00:57:49;;;;;;;9.52;5.50;;;;;;;7.07;100.00;92512.28;6302173;22;20011;-79
2023/10/18 01:00:19;;;;;;;11.25;5.80;;;;;;;7.11;100.00;92510.69;6273888;22;20010;-78
2023/10/18 01:02:49;;;;;;;11.23;5.80;;;;;;;7.13;100.00;92505.22;6301857;22;20033;-78
2023/10/18 01:05:15;;;;;;;11.52;5.93;;;;;;;7.16;100.00;92502.88;6274329;22;20227;-78
2023/10/18 01:07:46;;;;;;;11.30;5.43;;;;;;;7.17;100.00;92499.22;6301469;22;20010;-78
2023/10/18 01:10:12;;;;;;;8.90;5.38;;;;;;;7.20;100.00;92503.13;6273595;22;20014;-78
2023/10/18 01:12:38;;;;;;;13.00;5.50;;;;;;;7.21;100.00;92507.31;6300425;22;20015;-79
2023/10/18 01:15:09;;;;;;;9.27;5.22;;;;;;;7.24;100.00;92502.31;6274170;22;20101;-79
2023/10/18 01:17:36;;;;;;;9.93;5.10;;;;;;;7.27;100.00;92506.22;6274706;22;20042;-78
2023/10/18 01:20:33;;;;;;;10.75;5.15;;;;;;;7.30;100.00;92503.09;6302258;22;20037;-79
2023/10/18 01:22:51;;;;;;;7.88;5.53;;;;;;;7.33;100.00;92499.19;6300804;22;20023;-78
2023/10/18 01:25:18;;;;;;;7.88;4.97;;;;;;;7.37;100.00;92492.41;6271949;22;20015;-78
2023/10/18 01:27:45;;;;;;;9.77;5.10;;;;;;;7.40;100.00;92494.47;6301537;22;20436;-79
2023/10/18 01:30:14;;;;;;;11.68;5.43;;;;;;;7.42;100.00;92485.34;6301254;22;20018;-79
2023/10/18 01:32:40;;;;;;;9.32;5.07;;;;;;;7.44;100.00;92477.28;6300271;22;20011;-78
2023/10/18 01:35:07;;;;;;;7.88;4.50;;;;;;;7.45;100.00;92481.44;6273242;22;20011;-78
2023/10/18 01:37:32;;;;;;;9.48;5.43;;;;;;;7.47;100.00;92482.72;6301460;22;20086;-78
2023/10/18 01:40:19;;;;;;;9.57;4.90;;;;;;;7.49;100.00;92488.44;6274433;22;20580;-78
2023/10/18 01:42:44;;;;;;;10.77;5.00;;;;;;;7.51;100.00;92482.97;6300204;22;20129;-78
2023/10/18 01:45:11;;;;;;;6.65;4.60;;;;;;;7.53;100.00;92486.09;6301103;22;20329;-78
2023/10/18 01:47:38;;;;;;;8.43;4.65;;;;;;;7.54;100.00;92472.00;6300382;22;20509;-78
2023/10/18 01:50:04;;;;;;;7.00;4.57;;;;;;;7.57;100.00;92475.94;6248967;22;20046;-78
2023/10/18 01:52:30;;;;;;;7.22;4.65;;;;;;;7.60;100.00;92464.97;6275951;22;20014;-78
2023/10/18 01:54:55;;;;;;;7.15;4.35;;;;;;;7.61;100.00;92459.50;6303272;22;20015;-78
2023/10/18 01:57:21;;;;;;;9.60;4.82;;;;;;;7.63;100.00;92459.22;6276421;22;20018;-79
2023/10/18 01:59:48;;;;;;;7.28;4.43;;;;;;;7.61;100.00;92456.88;6277806;22;20007;-78
2023/10/18 02:02:15;;;;;;;6.32;4.45;;;;;;;7.60;100.00;92460.53;6277148;22;20065;-79
2023/10/18 02:04:41;;;;;;;9.95;5.18;;;;;;;7.59;100.00;92464.19;6304384;22;20015;-78
2023/10/18 02:07:09;;;;;;;7.68;4.53;;;;;;;7.59;100.00;92453.78;6303912;22;20015;-78
2023/10/18 02:09:44;;;;;;;8.15;4.63;;;;;;;7.60;100.00;92452.72;6276138;22;20023;-80
2023/10/18 02:12:10;;;;;;;6.90;4.63;;;;;;;7.61;100.00;92456.09;6303388;22;20100;-80
2023/10/18 02:14:36;;;;;;;9.25;4.85;;;;;;;7.61;100.00;92461.28;6277136;22;20004;-78
2023/10/18 02:17:05;;;;;;;6.88;4.60;;;;;;;7.62;100.00;92460.28;6304097;22;20022;-79
2023/10/18 02:19:31;;;;;;;7.47;4.53;;;;;;;7.63;100.00;92465.22;6303690;22;20015;-79
2023/10/18 02:21:57;;;;;;;11.85;4.85;;;;;;;7.64;100.00;92456.34;6276435;22;20031;-79
2023/10/18 02:24:23;;;;;;;8.02;4.75;;;;;;;7.66;100.00;92463.91;6251423;22;20019;-79
2023/10/18 02:27:00;;;;;;;8.15;4.43;;;;;;;7.67;100.00;92458.41;6277769;22;20034;-80
2023/10/18 02:29:28;;;;;;;9.38;4.55;;;;;;;7.68;100.00;92454.75;6304599;22;20437;-79
2023/10/18 02:31:57;;;;;;;7.80;4.68;;;;;;;7.70;100.00;92457.88;6304209;22;20503;-79
2023/10/18 02:34:26;;;;;;;7.35;4.90;;;;;;;7.70;100.00;92455.28;6303475;22;20165;-79
2023/10/18 02:36:53;;;;;;;7.28;4.65;;;;;;;7.73;100.00;92446.16;6303906;22;20008;-79
2023/10/18 02:39:27;;;;;;;13.00;4.38;;;;;;;7.76;100.00;92447.44;6304518;22;20011;-78
2023/10/18 02:41:56;;;;;;;9.05;4.72;;;;;;;7.76;100.00;92442.22;6302660;22;20020;-79
2023/10/18 02:44:22;;;;;;;9.00;4.40;;;;;;;7.78;100.00;92434.91;6276350;22;20003;-79
2023/10/18 02:46:54;;;;;;;8.15;4.15;;;;;;;7.78;100.00;92440.13;6277487;22;20015;-78
2023/10/18 02:49:22;;;;;;;6.27;4.20;;;;;;;7.78;100.00;92437.53;6278333;22;20018;-78
2023/10/18 02:51:47;;;;;;;9.95;4.10;;;;;;;7.77;100.00;92433.34;6278321;22;20019;-78
2023/10/18 02:56:43;;;;;;;6.53;4.28;;;;;;;7.77;100.00;92433.34;6305938;22;20526;-78
2023/10/18 02:59:13;;;;;;;6.53;3.92;;;;;;;7.80;100.00;92432.81;6278784;22;20655;-79
2023/10/18 03:01:40;;;;;;;8.20;4.40;;;;;;;7.80;100.00;92422.41;6304894;22;20028;-78
2023/10/18 03:04:12;;;;;;;6.97;4.35;;;;;;;7.83;100.00;92416.63;6305243;22;20076;-79
2023/10/18 03:06:38;;;;;;;7.50;4.20;;;;;;;7.83;100.00;92419.25;6278136;22;20015;-78
2023/10/18 03:09:05;;;;;;;7.05;4.47;;;;;;;7.84;100.00;92416.38;6307587;22;20028;-79
2023/10/18 03:11:32;;;;;;;6.82;4.70;;;;;;;7.84;100.00;92413.00;6278555;22;20011;-79
2023/10/18 03:13:58;;;;;;;7.03;4.32;;;;;;;7.85;100.00;92414.53;6278965;22;20185;-78
2023/10/18 03:18:59;;;;;;;6.72;4.20;;;;;;;7.86;100.00;92410.91;6306442;22;20019;-78
2023/10/18 03:21:32;;;;;;;9.45;4.45;;;;;;;7.86;100.00;92413.50;6277177;22;20456;-79
2023/10/18 03:23:58;;;;;;;8.73;4.00;;;;;;;7.86;100.00;92411.66;6277660;22;20015;-79
2023/10/18 03:26:35;;;;;;;8.10;4.68;;;;;;;7.89;100.00;92424.16;6278225;22;20061;-78
2023/10/18 03:29:37;;;;;;;6.43;4.30;;;;;;;7.91;100.00;92418.69;6305777;22;20030;-80
2023/10/18 03:31:53;;;;;;;9.35;4.82;;;;;;;7.88;100.00;92409.56;6272747;22;20460;-78
2023/10/18 03:34:19;;;;;;;9.15;4.72;;;;;;;7.89;100.00;92411.13;6305383;22;20444;-79
2023/10/18 03:36:49;;;;;;;7.95;4.65;;;;;;;7.90;100.00;92414.50;6277630;22;20022;-79
2023/10/18 03:39:18;;;;;;;7.35;4.70;;;;;;;7.91;100.00;92411.63;6305415;22;20011;-79
2023/10/18 03:41:46;;;;;;;6.22;4.30;;;;;;;7.91;100.00;92403.81;6276945;22;20014;-79
2023/10/18 03:44:13;;;;;;;8.90;4.20;;;;;;;7.91;100.00;92398.59;6277735;22;20007;-79
2023/10/18 03:46:47;;;;;;;9.30;4.30;;;;;;;7.92;100.00;92404.59;6305290;22;20094;-80
2023/10/18 03:49:22;;;;;;;7.68;4.25;;;;;;;7.94;100.00;92399.88;6277328;22;20016;-79
2023/10/18 03:51:49;;;;;;;8.50;4.60;;;;;;;7.93;100.00;92396.50;6278784;22;20018;-78
2023/10/18 03:54:14;;;;;;;7.38;4.10;;;;;;;7.95;100.00;92400.66;6278530;22;20133;-79
2023/10/18 03:56:43;;;;;;;6.80;4.18;;;;;;;7.94;100.00;92405.09;6251823;22;20080;-78
2023/10/18 03:59:21;;;;;;;7.00;3.97;;;;;;;7.93;100.00;92403.53;6304989;22;20015;-79
2023/10/18 04:02:15;;;;;;;8.23;4.07;;;;;;;7.93;100.00;92401.72;6277523;22;20540;-81
2023/10/18 04:04:54;;;;;;;7.00;3.83;;;;;;;7.92;100.00;92396.75;6304899;22;20011;-78
2023/10/18 04:07:20;;;;;;;8.30;4.07;;;;;;;7.89;100.00;92399.91;6305114;22;20110;-79
2023/10/18 04:12:27;;;;;;;7.80;4.07;;;;;;;7.74;100.00;92400.78;6277463;22;20015;-81
2023/10/18 04:15:00;;;;;;;5.32;3.85;;;;;;;7.71;100.00;92401.34;6302546;22;20439;-78
2023/10/18 04:17:36;;;;;;;8.73;4.20;;;;;;;7.64;100.00;92400.88;6306877;22;20089;-79
2023/10/18 04:20:23;;;;;;;8.85;4.35;;;;;;;7.64;100.00;92404.25;6304873;22;20011;-79
2023/10/18 04:22:50;;;;;;;7.18;4.13;;;;;;;7.64;100.00;92393.81;6304579;22;20022;-78
2023/10/18 04:25:27;;;;;;;8.95;3.90;;;;;;;7.66;100.00;92393.56;6305508;22;20011;-80
2023/10/18 04:28:00;;;;;;;6.97;3.90;;;;;;;7.67;100.00;92395.88;6305141;22;20007;-79
2023/10/18 04:30:30;;;;;;;7.88;4.05;;;;;;;7.70;100.00;92391.94;6303642;22;20350;-78
2023/10/18 04:33:00;;;;;;;10.07;3.92;;;;;;;7.72;100.00;92395.06;6277204;22;20376;-78
2023/10/18 04:35:29;;;;;;;8.45;4.05;;;;;;;7.78;100.00;92393.22;6305458;22;20015;-79
2023/10/18 04:37:57;;;;;;;8.77;3.72;;;;;;;7.80;100.00;92391.13;6305889;22;20053;-79
2023/10/18 04:40:25;;;;;;;6.10;3.85;;;;;;;7.80;100.00;92380.69;6302571;22;20011;-78
2023/10/18 04:42:55;;;;;;;7.03;3.90;;;;;;;7.80;100.00;92385.91;6277508;22;20391;-78
2023/10/18 04:45:24;;;;;;;12.13;6.30;;;;;;;7.79;100.00;92389.53;6304193;22;20433;-78
2023/10/18 04:47:57;;;;;;;9.88;5.68;;;;;;;7.79;100.00;92387.75;6305681;22;20019;-78
2023/10/18 04:50:38;;;;;;;6.93;4.20;;;;;;;7.81;100.00;92392.66;6274950;22;20428;-80
2023/10/18 04:53:11;;;;;;;8.68;4.25;;;;;;;7.83;100.00;92395.78;6301322;22;20066;-78
2023/10/18 04:55:46;;;;;;;10.15;4.00;;;;;;;7.84;100.00;92402.56;6299945;22;20106;-78
2023/10/18 04:58:15;;;;;;;6.03;3.97;;;;;;;7.85;100.00;92409.31;6273728;22;20021;-78
2023/10/18 05:01:07;;;;;;;9.75;3.67;;;;;;;7.85;100.00;92406.72;6299891;22;20007;-79
2023/10/18 05:03:33;;;;;;;7.03;4.30;;;;;;;7.85;100.00;92404.09;6302521;22;20449;-78
2023/10/18 05:05:58;;;;;;;6.30;3.80;;;;;;;7.89;100.00;92402.53;6301893;22;20333;-78
2023/10/18 05:08:24;;;;;;;7.38;4.13;;;;;;;7.93;100.00;92406.94;6300210;22;20007;-77
2023/10/18 05:11:04;;;;;;;7.97;3.70;;;;;;;7.88;100.00;92408.78;6270245;22;20007;-79
2023/10/18 05:13:32;;;;;;;8.27;3.90;;;;;;;7.88;100.00;92411.38;6300447;22;20019;-78
2023/10/18 05:16:04;;;;;;;7.00;4.00;;;;;;;7.86;100.00;92406.47;6301567;22;20031;-78
2023/10/18 05:18:30;;;;;;;10.00;4.30;;;;;;;7.88;100.00;92408.78;6301314;22;20014;-78
2023/10/18 05:21:02;;;;;;;7.90;3.90;;;;;;;7.87;100.00;92407.22;6300608;22;20011;-78
2023/10/18 05:23:32;;;;;;;6.00;3.65;;;;;;;7.88;100.00;92408.78;6302234;22;20015;-78
2023/10/18 05:26:08;;;;;;;6.93;3.80;;;;;;;7.90;100.00;92406.69;6301850;22;20336;-78
2023/10/18 05:28:48;;;;;;;5.07;3.47;;;;;;;7.90;100.00;92417.09;6301648;22;20016;-78
2023/10/18 05:31:44;;;;;;;6.90;3.88;;;;;;;7.89;100.00;92405.91;6300194;22;20015;-78
2023/10/18 05:41:59;;;;;;;9.18;5.20;;;;;;;7.67;100.00;92408.91;6301330;22;20255;-79
2023/10/18 05:44:28;;;;;;;9.70;4.93;;;;;;;7.69;100.00;92409.41;6301832;22;20041;-78
2023/10/18 05:46:54;;;;;;;9.23;5.88;;;;;;;7.74;100.00;92405.22;6301828;22;20005;-78
2023/10/18 05:49:23;;;;;;;9.07;5.88;;;;;;;7.69;100.00;92406.81;6300921;22;20015;-79
2023/10/18 05:52:15;;;;;;;8.43;5.53;;;;;;;7.69;100.00;92401.59;6302017;22;20405;-75
2023/10/18 05:54:43;;;;;;;10.33;5.87;;;;;;;7.72;100.00;92400.28;6301764;22;20019;-78
2023/10/18 05:57:15;;;;;;;7.40;4.75;;;;;;;7.74;100.00;92400.00;6300997;22;20229;-78
2023/10/18 05:59:41;;;;;;;9.15;5.65;;;;;;;7.78;100.00;92398.44;6272952;22;20235;-78
2023/10/18 06:02:10;;;;;;;9.07;5.13;;;;;;;7.78;100.00;92395.81;6301580;22;20064;-79
2023/10/18 06:04:42;;;;;;;10.63;5.07;;;;;;;7.78;100.00;92401.03;6302033;22;20011;-78
2023/10/18 06:07:12;;;;;;;;;;;;;;;7.80;100.00;92411.97;6302426;22;20018;-79
2023/10/18 06:09:54;;;;;;;8.57;4.95;;;;;;;7.74;100.00;92418.25;6299922;22;19917;-77
2023/10/18 06:12:25;;;;;;;8.88;5.47;;;;;;;7.75;100.00;92410.19;6301494;22;20110;-78
2023/10/18 06:14:53;;;;;;;9.00;5.57;;;;;;;7.76;100.00;92413.56;6301439;22;20011;-78
2023/10/18 06:17:22;;;;;;;11.27;6.03;;;;;;;7.76;100.00;92413.56;6301408;22;20086;-78
2023/10/18 06:19:50;;;;;;;11.45;6.30;;;;;;;7.79;100.00;92426.84;6300460;22;20038;-78
2023/10/18 06:22:28;;;;;;;11.73;5.88;;;;;;;7.82;100.00;92420.31;6301525;22;20029;-78
2023/10/18 06:24:57;;;;;;;12.88;5.72;;;;;;;7.85;100.00;92420.53;6276481;22;20011;-78
2023/10/18 06:27:23;;;;;;;8.32;5.22;;;;;;;7.88;100.00;92427.00;6303434;22;20445;-79
2023/10/18 06:29:53;;;;;;;10.73;5.68;;;;;;;7.88;100.00;92427.81;6303215;22;20333;-78
2023/10/18 06:32:22;;;;;;;10.38;5.35;;;;;;;7.89;100.00;92429.38;6303929;22;20412;-79
2023/10/18 06:34:57;;;;;;;6.90;4.65;;;;;;;7.93;100.00;92432.22;6303477;22;20015;-78
2023/10/18 06:37:24;;;;;;;8.27;4.85;;;;;;;7.99;100.00;92431.13;6275835;22;20345;-78
2023/10/18 06:39:54;;;;;;;9.48;4.35;;;;;;;8.01;100.00;92430.84;6302431;22;20007;-78
2023/10/18 06:42:22;;;;;;;7.15;4.22;;;;;;;8.06;100.00;92439.44;6299518;22;20011;-79
2023/10/18 06:44:49;;;;;;;9.00;4.22;;;;;;;8.09;100.00;92428.44;6301128;22;20003;-78
2023/10/18 06:47:15;;;;;;;6.57;4.25;;;;;;;8.14;100.00;92430.25;6274969;22;20098;-78
2023/10/18 06:49:47;;;;;;;8.43;4.60;;;;;;;8.22;100.00;92437.50;6302479;22;20525;-78
2023/10/18 06:52:17;;;;;;;;;;;;;;;8.32;100.00;92439.25;6304408;22;20034;-78
2023/10/18 06:54:45;;;;;;;7.55;5.03;;;;;;;8.33;100.00;92446.00;6304047;22;19911;-78
2023/10/18 06:57:18;;;;;;;11.90;6.38;;;;;;;8.30;100.00;92441.34;6275098;22;20015;-78
2023/10/18 06:59:48;;;;;;;13.30;7.32;;;;;;;8.32;100.00;92444.47;6302669;22;20078;-78
2023/10/18 07:02:14;;;;;;;9.50;5.80;;;;;;;8.36;100.00;92449.91;6303281;22;20010;-77
2023/10/18 07:04:50;;;;;;;14.13;6.40;;;;;;;8.37;100.00;92447.03;6303067;22;20479;-77
2023/10/18 07:07:20;;;;;;;12.10;5.70;;;;;;;8.43;100.00;92453.78;6249509;22;20019;-78
2023/10/18 07:09:52;;;;;;;9.05;4.88;;;;;;;8.45;100.00;92450.91;6303509;22;20114;-78
2023/10/18 07:12:19;;;;;;;8.77;5.55;;;;;;;8.47;100.00;92456.66;6303800;22;20015;-78
2023/10/18 07:14:46;;;;;;;10.25;5.25;;;;;;;8.43;100.00;92451.19;6304245;22;19999;-78
2023/10/18 07:17:14;;;;;;;9.23;5.38;;;;;;;8.45;100.00;92454.31;6302418;22;20011;-78
2023/10/18 07:19:49;;;;;;;9.73;5.57;;;;;;;8.49;100.00;92455.31;6300568;22;20037;-79
2023/10/18 07:22:18;;;;;;;8.05;5.78;;;;;;;8.55;100.00;92462.03;6302810;22;20019;-78
2023/10/18 07:24:55;;;;;;;8.63;5.80;;;;;;;8.58;100.00;92457.31;6302877;22;20015;-79
2023/10/18 07:27:23;;;;;;;7.38;5.13;;;;;;;8.59;100.00;92457.06;6275095;22;20038;-78
2023/10/18 07:29:49;;;;;;;9.45;5.40;;;;;;;8.53;100.00;92453.72;6303039;22;20373;-79
2023/10/18 07:32:20;;;;;;;7.07;5.28;;;;;;;8.57;100.00;92450.56;6275919;22;20357;-78
2023/10/18 07:34:48;;;;;;;7.68;4.90;;;;;;;8.64;100.00;92461.44;6303385;22;20017;-78
2023/10/18 07:37:17;;;;;;;10.18;5.00;;;;;;;8.71;100.00;92465.31;6276271;22;20018;-78
2023/10/18 07:39:55;;;;;;;9.82;5.43;;;;;;;8.80;100.00;92460.25;6303196;22;20011;-78
2023/10/18 07:42:26;;;;;;;8.63;4.57;;;;;;;8.80;100.00;92457.63;6278080;22;20090;-78
2023/10/18 07:44:53;;;;;;;9.38;4.97;;;;;;;8.69;100.00;92464.00;6301837;22;20038;-78
2023/10/18 07:47:20;;;;;;;10.88;4.60;;;;;;;8.64;100.00;92459.59;6302018;22;20373;-78
2023/10/18 07:49:46;;;;;;;11.20;5.40;;;;;;;8.64;100.00;92461.44;6274600;22;20033;-78
2023/10/18 07:52:13;;;;;;;10.02;4.90;;;;;;;8.58;100.00;92467.75;6276117;22;20018;-78
2023/10/18 07:54:39;;;;;;;9.35;5.03;;;;;;;8.71;100.00;92473.16;6276511;22;20022;-78
2023/10/18 07:57:15;;;;;;;8.02;4.97;;;;;;;8.73;100.00;92470.25;6275050;22;20011;-78
2023/10/18 07:59:47;;;;;;;12.07;5.95;;;;;;;8.76;100.00;92464.50;6302790;22;20062;-79
2023/10/18 08:02:26;;;;;;;7.85;5.35;;;;;;;8.74;100.00;92456.91;6302692;22;20090;-78
2023/10/18 08:05:00;;;;;;;7.38;5.30;;;;;;;8.80;100.00;92454.25;6278016;22;20090;-79
2023/10/18 08:07:29;;;;;;;10.45;5.00;;;;;;;8.77;100.00;92449.59;6311599;22;20365;-83
2023/10/18 08:09:58;;;;;;;8.35;5.35;;;;;;;8.80;100.00;92451.66;6286255;22;20082;-82
2023/10/18 08:14:54;;;;;;;12.38;4.78;;;;;;;8.84;100.00;92442.22;6262314;22;20022;-81
2023/10/18 08:22:42;;;;;;;11.55;5.05;;;;;;;8.78;100.00;92444.13;6290927;22;20016;-81
2023/10/18 08:25:21;;;;;;;9.65;5.07;;;;;;;8.73;100.00;92434.47;6286574;22;20015;-81
2023/10/18 08:27:51;;;;;;;8.27;5.10;;;;;;;8.79;100.00;92434.44;6286869;22;20093;-82
2023/10/18 08:33:03;;;;;;;8.70;5.22;;;;;;;8.65;100.00;92429.88;6310249;22;20014;-82
2023/10/18 08:35:29;;;;;;;9.82;5.20;;;;;;;8.85;100.00;92441.16;6310086;22;20056;-82
2023/10/18 08:37:55;;;;;;;9.60;5.25;;;;;;;8.88;100.00;92444.00;6283942;22;20424;-80
2023/10/18 08:40:28;;;;;;;9.32;5.05;;;;;;;9.01;100.00;92437.34;6310377;22;20011;-80
2023/10/18 08:43:06;;;;;;;11.18;5.35;;;;;;;9.15;100.00;92429.63;6311356;22;20037;-80
2023/10/18 08:45:46;;;;;;;11.15;5.30;;;;;;;9.25;100.00;92436.56;6284940;22;20038;-80
2023/10/18 08:48:21;;;;;;;7.78;5.22;;;;;;;9.34;100.00;92443.53;6262412;22;20045;-80
2023/10/18 08:50:48;;;;;;;9.40;4.97;;;;;;;9.43;100.00;92438.44;6238932;22;20014;-81
2023/10/18 08:53:15;;;;;;;7.47;4.65;;;;;;;9.67;100.00;92437.66;6288470;22;20027;-80
2023/10/18 08:55:51;;;;;;;8.60;4.50;;;;;;;9.67;100.00;92438.41;6287451;22;20061;-80
2023/10/18 08:58:19;;;;;;;9.75;5.00;;;;;;;9.54;100.00;92441.72;6312286;22;20014;-81
2023/10/18 09:03:29;;;;;;;8.98;5.10;;;;;;;9.37;100.00;92434.34;6314548;22;20276;-81
2023/10/18 09:06:07;;;;;;;12.55;5.28;;;;;;;9.31;100.00;92431.00;6289726;22;20015;-81
2023/10/18 09:09:00;;;;;;;8.65;5.30;;;;;;;9.25;100.00;92418.28;6314934;22;20011;-81
2023/10/18 09:11:27;;;;;;;8.30;5.25;;;;;;;9.20;100.00;92421.75;6316055;22;20018;-81
2023/10/18 09:14:15;;;;;;;7.18;5.00;;;;;;;9.12;100.00;92424.97;6286939;22;20452;-79
2023/10/18 09:16:41;;;;;;;11.85;5.43;;;;;;;9.09;100.00;92428.91;6313219;22;20380;-79
2023/10/18 09:19:07;;;;;;;7.07;5.13;;;;;;;9.20;100.00;92429.56;6314571;22;20018;-80
2023/10/18 09:21:36;;;;;;;7.47;4.93;;;;;;;9.25;100.00;92429.50;6316088;22;20007;-80
2023/10/18 09:24:06;;;;;;;8.88;5.05;;;;;;;9.05;100.00;92434.94;6315145;22;20090;-80
2023/10/18 09:26:40;;;;;;;11.00;6.20;;;;;;;8.86;100.00;92435.66;6317226;22;20353;-80
2023/10/18 09:29:08;;;;;;;10.45;5.18;;;;;;;8.79;100.00;92430.00;6290500;22;20045;-80
2023/10/18 09:31:34;;;;;;;8.57;5.30;;;;;;;8.73;100.00;92428.47;6289471;22;20015;-80
2023/10/18 09:34:07;;;;;;;13.32;5.40;;;;;;;8.80;100.00;92428.16;6318153;22;20061;-80
2023/10/18 09:36:43;;;;;;;11.30;5.85;;;;;;;8.86;100.00;92422.63;6316829;22;20440;-80
2023/10/18 09:39:13;;;;;;;10.88;5.15;;;;;;;8.89;100.00;92421.28;6317909;22;20015;-80
2023/10/18 09:41:39;;;;;;;8.70;5.38;;;;;;;8.89;100.00;92419.47;6317293;22;20007;-81
2023/10/18 09:44:06;;;;;;;9.38;5.43;;;;;;;8.95;100.00;92409.75;6316765;22;20094;-80
2023/10/18 09:46:35;;;;;;;10.40;5.93;;;;;;;9.03;100.00;92410.94;6317645;22;20011;-80
2023/10/18 09:49:08;;;;;;;8.57;5.22;;;;;;;9.06;100.00;92405.19;6290303;22;20334;-81
2023/10/18 09:51:36;;;;;;;9.43;5.55;;;;;;;9.08;100.00;92416.13;6318005;22;20041;-80
2023/10/18 09:54:07;;;;;;;10.20;5.05;;;;;;;9.13;100.00;92413.47;6317359;22;19999;-81
2023/10/18 09:56:35;;;;;;;8.52;4.40;;;;;;;9.24;100.00;92412.28;6317300;22;20021;-80
2023/10/18 09:59:05;;;;;;;8.90;5.63;;;;;;;9.31;100.00;92423.19;6317514;22;20053;-80
2023/10/18 10:04:14;;;;;;;8.75;6.50;;;;;;;9.30;100.00;92426.84;6293403;22;20011;-80
2023/10/18 10:06:46;;;;;;;10.25;6.03;;;;;;;9.24;100.00;92419.34;6319434;22;20106;-80
2023/10/18 10:09:14;;;;;;;9.23;5.38;;;;;;;9.22;100.00;92417.00;6319170;22;20011;-80
2023/10/18 10:11:44;;;;;;;12.70;6.72;;;;;;;9.22;100.00;92417.00;6319220;22;20015;-81
2023/10/18 10:14:22;;;;;;;10.32;5.32;;;;;;;9.22;100.00;92411.78;6318409;22;20007;-81
2023/10/18 10:17:06;;;;;;;10.43;5.85;;;;;;;9.16;100.00;92416.31;6291914;22;20062;-81
2023/10/18 10:19:37;;;;;;;11.85;5.45;;;;;;;9.29;100.00;92416.69;6318239;22;20012;-81
2023/10/18 10:22:07;;;;;;;11.70;4.97;;;;;;;9.29;100.00;92422.66;6291603;22;20018;-80
2023/10/18 10:24:43;;;;;;;9.25;5.85;;;;;;;9.45;100.00;92422.50;6318896;22;20056;-80
2023/10/18 10:33:00;;;;;;;9.30;5.50;;;;;;;9.25;100.00;92416.44;6318344;22;20011;-80
2023/10/18 10:35:29;;;;;;;8.52;5.03;;;;;;;9.25;100.00;92419.06;6317247;22;20027;-80
2023/10/18 10:38:09;;;;;;;8.90;5.75;;;;;;;9.13;100.00;92411.63;6290359;22;20349;-80
2023/10/18 10:40:43;;;;;;;13.02;6.95;;;;;;;9.10;100.00;92424.47;6318648;22;20333;-80
2023/10/18 10:43:09;;;;;;;13.35;6.25;;;;;;;9.21;100.00;92412.84;6319356;22;20047;-80
2023/10/18 10:45:38;;;;;;;11.93;5.72;;;;;;;9.16;100.00;92407.69;6289833;22;20110;-81
2023/10/18 10:51:11;;;;;;;9.45;5.10;;;;;;;9.21;100.00;92405.03;6317044;22;20189;-80
2023/10/18 10:53:43;;;;;;;8.57;5.82;;;;;;;9.16;100.00;92399.84;6286497;22;20011;-80
2023/10/18 10:56:18;;;;;;;8.25;5.30;;;;;;;9.21;100.00;92404.22;6309593;22;20007;-81
2023/10/18 10:59:03;;;;;;;11.80;5.95;;;;;;;9.18;100.00;92395.13;6314719;22;20014;-80
2023/10/18 11:04:27;;;;;;;15.75;6.28;;;;;;;9.14;100.00;92388.88;6316458;22;20034;-80
2023/10/18 11:07:08;;;;;;;8.57;5.85;;;;;;;9.13;100.00;92389.97;6315639;22;20007;-81
2023/10/18 11:09:38;;;;;;;9.23;6.05;;;;;;;9.19;100.00;92388.84;6314875;22;20094;-80
2023/10/18 11:12:08;;;;;;;9.77;6.70;;;;;;;9.14;100.00;92394.13;6316080;22;20318;-81
2023/10/18 11:14:37;;;;;;;10.93;6.80;;;;;;;9.23;100.00;92386.44;6315057;22;20011;-80
2023/10/18 11:19:51;;;;;;;11.48;5.93;;;;;;;9.25;100.00;92382.50;6315277;22;20068;-80
2023/10/18 11:22:21;;;;;;;8.98;5.88;;;;;;;9.25;100.00;92382.50;6317136;22;20326;-80
2023/10/18 11:24:50;;;;;;;8.55;5.50;;;;;;;9.31;100.00;92375.38;6289366;22;20042;-80
2023/10/18 11:27:33;;;;;;;15.05;5.82;;;;;;;9.34;100.00;92359.94;6313369;22;20026;-80
2023/10/18 11:30:31;;;;;;;;;;;;;;;9.40;100.00;92365.09;6311986;22;20025;-78
2023/10/18 11:32:55;;;;;;;7.80;5.53;;;;;;;9.38;100.00;92365.38;6311940;22;19941;-80
2023/10/18 11:38:09;;;;;;;9.35;5.80;;;;;;;9.55;100.00;92357.06;6313973;22;20033;-80
2023/10/18 11:40:40;;;;;;;10.75;5.97;;;;;;;9.40;100.00;92358.03;6263351;22;20010;-80
2023/10/18 11:43:09;;;;;;;12.80;7.28;;;;;;;9.40;100.00;92357.25;6289019;22;20012;-80
2023/10/18 11:45:39;;;;;;;10.38;6.47;;;;;;;9.58;100.00;92348.63;6285073;22;19995;-80
2023/10/18 11:48:11;;;;;;;10.25;5.88;;;;;;;9.65;100.00;92351.66;6314681;22;20068;-80
2023/10/18 11:50:50;;;;;;;;;;;;;;;9.63;100.00;92345.19;6288305;22;20015;-80
2023/10/18 11:53:23;;;;;;;10.40;6.18;;;;;;;9.52;100.00;92336.69;6314724;22;19973;-80
2023/10/18 11:56:05;;;;;;;13.95;7.47;;;;;;;9.45;100.00;92328.44;6285183;22;20075;-77
2023/10/18 11:58:33;;;;;;;19.75;12.45;;;;;;;9.48;100.00;92325.25;6311553;22;20049;-78
2023/10/18 12:01:05;;;;;;;10.93;6.68;;;;;;;9.50;100.00;92331.78;6310029;22;20646;-78
2023/10/18 12:03:33;;;;;;;;;;;;;;;9.41;100.00;92330.06;6310724;22;20039;-78
2023/10/18 12:06:03;;;;;;;14.05;8.68;;;;;;;9.37;100.00;92335.84;6284424;22;20251;-79
2023/10/18 12:08:40;;;;;;;13.40;7.07;;;;;;;9.33;100.00;92334.84;6309407;22;20011;-79
2023/10/18 12:11:08;;;;;;;10.93;6.60;;;;;;;9.39;100.00;92322.53;6309338;22;20084;-78
2023/10/18 12:13:34;;;;;;;8.98;6.25;;;;;;;9.26;100.00;92323.22;6283815;22;20010;-79
2023/10/18 12:16:00;;;;;;;11.07;6.22;;;;;;;9.34;100.00;92317.34;6310154;22;20031;-79
2023/10/18 12:18:29;;;;;;;10.93;7.70;;;;;;;9.34;100.00;92306.88;6283245;22;20029;-78
2023/10/18 12:20:55;;;;;;;10.25;6.32;;;;;;;9.28;100.00;92314.03;6259794;22;20015;-78
2023/10/18 12:23:21;;;;;;;11.48;6.68;;;;;;;9.20;100.00;92316.50;6285821;22;20464;-79
2023/10/18 12:25:48;;;;;;;13.68;6.40;;;;;;;9.20;100.00;92317.25;6311029;22;20027;-79
2023/10/18 12:28:35;;;;;;;12.80;7.05;;;;;;;9.09;100.00;92305.41;6259056;22;20018;-79
2023/10/18 12:31:09;;;;;;;9.43;6.78;;;;;;;9.00;100.00;92307.09;6284485;22;20057;-79
2023/10/18 12:33:35;;;;;;;10.70;6.82;;;;;;;9.01;100.00;92293.75;6287177;22;20019;-79
2023/10/18 12:36:01;;;;;;;10.40;6.40;;;;;;;9.04;100.00;92293.19;6283996;22;20006;-79
2023/10/18 12:38:43;;;;;;;18.65;9.35;;;;;;;9.02;100.00;92286.69;6257196;22;20015;-78